»·PEaware :: N73MC KMRY-KSMF

N73MC :: KMRY-KSMF

FLIGHT INFORMATION

Flight Status: Arrived
Operator: Privately registered:
United States
More flights under this callsign
Pilot: Mark R. (11809)
Aircraft: BEECH AIRCRAFT SUPER KING AIR COMMUTER
(BE20)
More flights by this aircraft type
Origin: KMRY Monterey Peninsula
United States
Destination: KSMF Sacramento Intl
United States
More flights between these airports :: More routes between these airports
Route: TORO7 SNS SJC SALAD SAC
File this flight plan on PilotEdge
Remarks:
Altitude:
(Current/Filed)
11,000ft
Speed:
(Current/Filed)
280kts
Departed: 23-Feb-21 10:02 AM
Arrived: 23-Feb-21 10:40 AM
Distance/Time
Traveled:
126nm/0:38
Distance/Time
To Go:
Arrived

Flight Plot

Page will automatically refresh every two minutes.

Flight plan parsing failed; only flown route is shown


Map Options




Map Legend


Flown Route
Filed Route
Departure Airport
Arrival Airport
Navaid (VOR, NDB)
Fix

Horizontal Profiles

Position Reports

Time Latitude Longitude Heading Altitude Ground
Speed
23-Feb-21 09:25 36.588786 -121.860146 109 141ft 0kts
23-Feb-21 09:26 36.588786 -121.860146 109 141ft 0kts
23-Feb-21 09:27 36.588786 -121.860146 109 141ft 0kts
23-Feb-21 09:28 36.588786 -121.860146 109 141ft 0kts
23-Feb-21 09:29 36.588786 -121.860146 109 141ft 0kts
23-Feb-21 09:30 36.588786 -121.860146 109 141ft 0kts
23-Feb-21 09:31 36.588786 -121.860146 109 141ft 0kts
23-Feb-21 09:32 36.588786 -121.860146 109 141ft 0kts
23-Feb-21 09:33 36.588786 -121.860146 109 141ft 0kts
23-Feb-21 09:34 36.588786 -121.860146 109 141ft 0kts
23-Feb-21 09:35 36.588786 -121.860146 109 141ft 0kts
23-Feb-21 09:36 36.588786 -121.860146 109 141ft 0kts
23-Feb-21 09:37 36.588786 -121.860146 109 141ft 0kts
23-Feb-21 09:38 36.588786 -121.860146 109 141ft 0kts
23-Feb-21 09:39 36.588786 -121.860146 109 141ft 0kts
23-Feb-21 09:40 36.588786 -121.860146 109 141ft 0kts
23-Feb-21 09:41 36.588786 -121.860146 109 141ft 0kts
23-Feb-21 09:42 36.588786 -121.860146 109 141ft 0kts
23-Feb-21 09:43 36.588786 -121.860146 109 141ft 0kts
23-Feb-21 09:44 36.588786 -121.860146 109 141ft 0kts
23-Feb-21 09:45 36.588786 -121.860146 109 141ft 0kts
23-Feb-21 09:46 36.588786 -121.860146 109 141ft 0kts
23-Feb-21 09:47 36.588786 -121.860146 109 141ft 0kts
23-Feb-21 09:48 36.588786 -121.860146 109 141ft 0kts
23-Feb-21 09:49 36.588786 -121.860146 109 141ft 0kts
23-Feb-21 09:50 36.588786 -121.860146 109 141ft 0kts
23-Feb-21 09:51 36.588786 -121.860146 109 141ft 0kts
23-Feb-21 09:52 36.588786 -121.860146 109 141ft 0kts
23-Feb-21 09:53 36.588786 -121.860146 109 141ft 0kts
23-Feb-21 09:54 36.588786 -121.860146 109 141ft 0kts
23-Feb-21 09:55 36.588786 -121.860146 109 141ft 0kts
23-Feb-21 09:56 36.588786 -121.860146 109 141ft 0kts
23-Feb-21 09:57 36.588786 -121.860146 109 141ft 0kts
23-Feb-21 09:58 36.588770 -121.859032 77 133ft 5kts
23-Feb-21 09:59 36.589338 -121.856207 76 142ft 9kts
23-Feb-21 10:00 36.589946 -121.856084 311 141ft 2kts
23-Feb-21 10:01 36.590406 -121.854453 113 143ft 55kts
23-Feb-21 10:02 36.587016 -121.810302 76 1660ft 167kts
23-Feb-21 10:03 36.601322 -121.752054 75 3937ft 172kts
23-Feb-21 10:04 36.631342 -121.717113 7 6380ft 169kts
23-Feb-21 10:05 36.676131 -121.725851 347 8514ft 171kts
23-Feb-21 10:06 36.724864 -121.741934 348 10034ft 197kts
23-Feb-21 10:07 36.783135 -121.760033 347 10997ft 241kts
23-Feb-21 10:08 36.853686 -121.781996 344 11002ft 271kts
23-Feb-21 10:09 36.926588 -121.804644 345 10999ft 269kts
23-Feb-21 10:10 36.998665 -121.827057 345 10999ft 266kts
23-Feb-21 10:11 37.070009 -121.849277 345 10999ft 266kts
23-Feb-21 10:12 37.141738 -121.871663 345 10999ft 266kts
23-Feb-21 10:13 37.212952 -121.893931 346 11016ft 265kts
23-Feb-21 10:14 37.284427 -121.916324 346 11019ft 267kts
23-Feb-21 10:15 37.356371 -121.938912 346 11009ft 268kts
23-Feb-21 10:16 37.430370 -121.945154 356 11010ft 269kts
23-Feb-21 10:17 37.505119 -121.949384 358 11009ft 270kts
23-Feb-21 10:18 37.580157 -121.952553 358 11019ft 271kts
23-Feb-21 10:19 37.654236 -121.955488 358 11012ft 272kts
23-Feb-21 10:20 37.729879 -121.958435 358 11009ft 272kts
23-Feb-21 10:21 37.801767 -121.937931 18 11007ft 273kts
23-Feb-21 10:22 37.871586 -121.900001 24 11009ft 274kts
23-Feb-21 10:23 37.940013 -121.859295 25 11019ft 274kts
23-Feb-21 10:24 38.008486 -121.817859 25 11019ft 272kts
23-Feb-21 10:25 38.075984 -121.776836 25 9541ft 261kts
23-Feb-21 10:26 38.137970 -121.742526 13 8014ft 232kts
23-Feb-21 10:27 38.197970 -121.719990 15 6512ft 220kts
23-Feb-21 10:31 38.396168 -121.642887 14 3396ft 172kts
23-Feb-21 10:32 38.443190 -121.624364 15 3398ft 181kts
23-Feb-21 10:33 38.491895 -121.605266 16 3400ft 185kts
23-Feb-21 10:34 38.539454 -121.604026 1 2864ft 162kts
23-Feb-21 10:35 38.582664 -121.603133 0 2015ft 144kts
23-Feb-21 10:36 38.618764 -121.602538 0 1307ft 120kts
23-Feb-21 10:37 38.649812 -121.601902 0 710ft 104kts
23-Feb-21 10:38 38.677923 -121.601593 356 203ft 103kts
23-Feb-21 10:39 38.694756 -121.601058 52 22ft 7kts
23-Feb-21 10:40 38.692676 -121.599255 148 22ft 15kts
23-Feb-21 10:41 38.689969 -121.598774 183 22ft 7kts
23-Feb-21 10:42 38.687095 -121.598845 182 22ft 11kts
23-Feb-21 10:43 38.684087 -121.598901 180 21ft 9kts
23-Feb-21 10:44 38.681506 -121.598489 127 20ft 10kts
23-Feb-21 10:45 38.681042 -121.597098 88 20ft 0kts
23-Feb-21 10:46 38.681042 -121.597098 88 20ft 0kts

Navigation Log

Ident Type
Flight plan parsing failed, navigation log unavailable